Time;durP1;ratioP1;P1;durP2;ratioP2;P2;SDS_P1;SDS_P2;PMS_P1;PMS_P2;Temp;Humidity;BMP_temperature;BMP_pressure;BME280_temperature;BME280_humidity;BME280_pressure;Samples;Min_cycle;Max_cycle;Signal;HPM_P1;HPM_P2
2021/08/14 00:00:32;;;;;;;10.43;5.78;;;;;;;17.74;96.61;99373.88;4993287;28;20038;-70
2021/08/14 00:02:58;;;;;;;10.75;6.47;;;;;;;17.71;96.58;99375.19;5001329;28;20128;-71
2021/08/14 00:05:23;;;;;;;9.55;6.65;;;;;;;17.62;96.98;99373.00;5004813;28;20030;-70
2021/08/14 00:07:48;;;;;;;10.95;6.18;;;;;;;17.59;97.15;99378.97;5007105;28;20029;-69
2021/08/14 00:10:14;;;;;;;11.10;6.70;;;;;;;17.42;97.41;99351.44;4999980;28;20030;-70
2021/08/14 00:12:39;;;;;;;10.35;6.50;;;;;;;17.49;98.05;99385.00;4999077;28;20030;-70
2021/08/14 00:15:05;;;;;;;9.50;6.22;;;;;;;17.46;98.67;99385.47;5002232;28;20029;-70
2021/08/14 00:17:31;;;;;;;13.10;5.90;;;;;;;17.45;98.80;99372.88;5009748;28;20088;-71
2021/08/14 00:19:56;;;;;;;16.75;7.13;;;;;;;17.44;99.10;99380.22;5007780;28;20033;-71
2021/08/14 00:22:21;;;;;;;13.82;6.40;;;;;;;17.35;98.86;99364.41;5005399;28;20026;-71
2021/08/14 00:24:46;;;;;;;9.77;6.35;;;;;;;17.33;98.87;99363.78;5009710;28;20021;-71
2021/08/14 00:27:12;;;;;;;9.88;6.90;;;;;;;17.36;98.22;99371.53;5010015;28;20030;-71
2021/08/14 00:29:38;;;;;;;10.50;6.55;;;;;;;17.36;98.28;99369.63;4994578;28;20034;-71
2021/08/14 00:32:03;;;;;;;13.45;7.32;;;;;;;17.24;98.88;99360.56;5009709;28;20052;-71
2021/08/14 00:34:29;;;;;;;10.73;6.88;;;;;;;17.11;99.37;99353.38;5007934;28;20030;-71
2021/08/14 00:36:54;;;;;;;10.43;7.65;;;;;;;17.20;100.00;99357.44;5011174;28;20030;-71
2021/08/14 00:39:19;;;;;;;11.18;6.75;;;;;;;17.14;100.00;99361.13;5012590;28;20068;-71
2021/08/14 00:41:45;;;;;;;10.15;6.97;;;;;;;17.10;100.00;99351.69;5005388;28;20050;-71
2021/08/14 00:44:10;;;;;;;11.20;7.38;;;;;;;17.08;100.00;99346.50;5003604;28;20096;-71
2021/08/14 00:46:37;;;;;;;12.00;7.30;;;;;;;17.17;100.00;99365.28;5013563;28;20029;-71
2021/08/14 00:49:03;;;;;;;15.98;7.22;;;;;;;16.99;100.00;99339.66;5014163;28;20537;-71
2021/08/14 00:51:28;;;;;;;9.80;6.65;;;;;;;17.01;99.66;99364.88;5012756;28;20056;-71
2021/08/14 00:53:54;;;;;;;12.35;6.78;;;;;;;16.89;100.00;99352.22;5013538;28;20108;-71
2021/08/14 00:56:20;;;;;;;8.63;6.60;;;;;;;16.86;100.00;99353.50;5015025;28;20048;-71
2021/08/14 00:58:49;;;;;;;10.13;7.07;;;;;;;16.84;100.00;99366.56;5007085;28;20026;-71
2021/08/14 01:01:15;;;;;;;10.98;6.78;;;;;;;16.71;100.00;99342.13;5011552;28;20099;-71
2021/08/14 01:03:41;;;;;;;9.60;7.03;;;;;;;16.77;100.00;99360.34;5014066;28;20028;-71
2021/08/14 01:06:06;;;;;;;13.25;7.55;;;;;;;16.66;100.00;99331.88;5013837;28;20021;-71
2021/08/14 01:08:31;;;;;;;11.80;7.22;;;;;;;16.79;100.00;99361.81;5012942;28;20022;-71
2021/08/14 01:10:57;;;;;;;9.65;7.10;;;;;;;16.66;100.00;99331.88;4998200;28;20030;-71
2021/08/14 01:13:24;;;;;;;11.52;6.90;;;;;;;16.63;100.00;99335.06;5011088;28;20029;-71
2021/08/14 01:15:50;;;;;;;11.48;7.20;;;;;;;16.69;100.00;99358.75;5011810;28;20040;-70
2021/08/14 01:18:17;;;;;;;13.20;6.93;;;;;;;16.55;100.00;99347.13;5005793;28;20037;-71
2021/08/14 01:20:44;;;;;;;11.38;6.95;;;;;;;16.63;100.00;99356.94;5004542;28;20023;-71
2021/08/14 01:23:11;;;;;;;12.13;7.30;;;;;;;16.62;100.00;99356.09;5006157;28;20029;-71
2021/08/14 01:25:36;;;;;;;11.02;7.47;;;;;;;16.59;100.00;99351.09;5010127;28;20037;-71
2021/08/14 01:28:02;;;;;;;9.15;7.13;;;;;;;16.49;100.00;99328.13;4997294;28;20084;-71
2021/08/14 01:30:28;;;;;;;10.55;6.80;;;;;;;16.64;100.00;99344.94;5003564;28;20022;-70
2021/08/14 01:32:54;;;;;;;8.07;6.53;;;;;;;16.61;100.00;99329.00;5007506;28;20107;-71
2021/08/14 01:35:19;;;;;;;11.60;6.60;;;;;;;16.66;100.00;99342.81;5005873;28;20550;-71
2021/08/14 01:37:45;;;;;;;11.98;7.07;;;;;;;16.52;100.00;99324.91;5013642;28;20029;-71
2021/08/14 01:40:10;;;;;;;9.63;7.22;;;;;;;16.50;100.00;99318.84;5008577;28;20056;-71
2021/08/14 01:42:36;;;;;;;14.57;7.13;;;;;;;16.44;100.00;99323.34;5011490;28;20026;-71
2021/08/14 01:45:01;;;;;;;12.55;7.07;;;;;;;16.53;100.00;99338.38;5013952;28;20018;-71
2021/08/14 01:47:27;;;;;;;16.80;7.55;;;;;;;16.50;100.00;99324.31;5008879;28;20115;-71
2021/08/14 01:49:52;;;;;;;10.68;7.05;;;;;;;16.56;100.00;99345.28;5011528;28;20088;-70
2021/08/14 01:52:18;;;;;;;10.50;7.20;;;;;;;16.49;100.00;99345.34;5012618;28;20029;-71
2021/08/14 01:54:46;;;;;;;10.57;7.05;;;;;;;16.39;100.00;99320.47;5008214;28;20088;-71
2021/08/14 01:57:12;;;;;;;10.15;6.95;;;;;;;16.37;100.00;99333.50;5021289;28;20112;-72
2021/08/14 01:59:39;;;;;;;10.48;6.68;;;;;;;16.40;100.00;99338.50;5014579;28;20056;-72
2021/08/14 02:02:05;;;;;;;9.75;6.15;;;;;;;16.31;100.00;99328.97;5012004;28;20033;-72
2021/08/14 02:04:30;;;;;;;10.00;6.75;;;;;;;16.24;100.00;99330.91;5009690;28;20506;-71
2021/08/14 02:06:56;;;;;;;16.65;6.60;;;;;;;16.13;100.00;99314.22;5013319;28;20096;-71
2021/08/14 02:09:21;;;;;;;10.52;7.45;;;;;;;16.15;100.00;99312.13;5010344;28;20022;-71
2021/08/14 02:11:47;;;;;;;10.05;7.43;;;;;;;16.28;100.00;99323.97;5013144;28;20472;-71
2021/08/14 02:14:12;;;;;;;11.35;7.68;;;;;;;16.21;100.00;99304.91;5004846;28;20113;-71
2021/08/14 02:16:38;;;;;;;9.90;7.40;;;;;;;16.21;100.00;99327.56;4998770;28;20479;-71
2021/08/14 02:19:04;;;;;;;11.40;7.88;;;;;;;16.10;100.00;99311.13;5011713;28;20123;-71
2021/08/14 02:21:30;;;;;;;13.38;7.90;;;;;;;16.04;100.00;99301.97;5010212;28;20491;-71
2021/08/14 02:23:56;;;;;;;15.15;8.02;;;;;;;16.15;100.00;99327.66;5011453;28;20037;-70
2021/08/14 02:26:22;;;;;;;13.32;7.88;;;;;;;15.99;100.00;99305.34;5004197;28;20021;-71
2021/08/14 02:28:48;;;;;;;9.18;6.38;;;;;;;16.13;100.00;99316.97;5010789;28;20049;-70
2021/08/14 02:31:14;;;;;;;10.63;6.70;;;;;;;16.16;100.00;99326.59;5011090;28;20113;-71
2021/08/14 02:33:39;;;;;;;14.90;7.15;;;;;;;16.20;100.00;99322.38;5007384;28;20550;-70
2021/08/14 02:36:06;;;;;;;10.77;7.38;;;;;;;16.05;100.00;99291.88;5011570;28;20117;-71
2021/08/14 02:38:36;;;;;;;13.43;7.15;;;;;;;16.24;100.00;99336.38;4996764;28;20022;-71
2021/08/14 02:41:03;;;;;;;13.18;7.55;;;;;;;16.09;100.00;99317.66;5002256;28;20087;-71
2021/08/14 02:43:28;;;;;;;9.70;6.88;;;;;;;15.97;100.00;99318.38;5005819;28;20044;-71
2021/08/14 02:45:54;;;;;;;11.05;7.32;;;;;;;15.96;100.00;99310.44;5012056;28;20428;-70
2021/08/14 02:48:19;;;;;;;12.43;7.82;;;;;;;15.96;100.00;99305.00;5011318;28;20033;-71
2021/08/14 02:50:45;;;;;;;14.35;7.50;;;;;;;15.93;100.00;99295.38;5009152;28;20017;-71
2021/08/14 02:53:11;;;;;;;9.45;6.72;;;;;;;15.96;100.00;99311.28;5005228;28;20029;-71
2021/08/14 02:55:37;;;;;;;9.07;6.93;;;;;;;16.11;100.00;99330.03;5012051;28;20117;-71
2021/08/14 02:58:02;;;;;;;9.95;6.82;;;;;;;15.92;100.00;99310.03;5010348;28;20030;-70
2021/08/14 03:00:29;;;;;;;10.27;7.22;;;;;;;15.87;100.00;99300.88;5009132;28;20069;-71
2021/08/14 03:02:54;;;;;;;9.52;6.47;;;;;;;15.96;100.00;99330.38;5000927;28;20045;-71
2021/08/14 03:05:19;;;;;;;10.20;7.30;;;;;;;15.95;100.00;99322.41;5011700;28;20567;-71
2021/08/14 03:07:45;;;;;;;9.68;7.18;;;;;;;15.83;100.00;99322.31;5010826;28;20037;-71
2021/08/14 03:10:10;;;;;;;10.90;6.93;;;;;;;15.78;100.00;99319.44;5010412;28;20076;-70
2021/08/14 03:12:36;;;;;;;12.50;6.68;;;;;;;15.70;100.00;99322.47;4998700;28;20032;-71
2021/08/14 03:15:01;;;;;;;15.05;7.00;;;;;;;15.60;100.00;99327.53;5010519;28;20412;-72
2021/08/14 03:17:29;;;;;;;11.63;7.07;;;;;;;15.50;100.00;99320.69;5000295;28;20054;-70
2021/08/14 03:19:54;;;;;;;12.70;7.53;;;;;;;15.59;100.00;99332.19;5011272;28;20034;-71
2021/08/14 03:22:19;;;;;;;13.52;7.22;;;;;;;15.47;100.00;99302.06;5009536;28;20018;-72
2021/08/14 03:24:44;;;;;;;17.17;8.45;;;;;;;15.70;100.00;99322.47;5010027;28;20091;-71
2021/08/14 03:27:10;;;;;;;8.90;7.03;;;;;;;15.68;100.00;99324.53;5010232;28;20026;-71
2021/08/14 03:29:35;;;;;;;10.18;6.90;;;;;;;15.74;100.00;99329.94;5003508;28;20113;-71
2021/08/14 03:32:01;;;;;;;12.90;7.57;;;;;;;15.75;100.00;99330.81;5011879;28;20044;-72
2021/08/14 03:34:26;;;;;;;11.95;7.38;;;;;;;15.67;100.00;99323.72;5010398;28;20490;-71
2021/08/14 03:36:52;;;;;;;9.70;6.60;;;;;;;15.41;100.00;99302.94;5008793;28;20076;-71
2021/08/14 03:39:17;;;;;;;11.23;6.70;;;;;;;15.38;100.00;99303.41;5009284;28;20080;-71
2021/08/14 03:41:43;;;;;;;11.23;7.13;;;;;;;15.41;100.00;99329.38;5010466;28;20109;-71
2021/08/14 03:44:08;;;;;;;11.18;7.28;;;;;;;15.26;100.00;99322.34;5003859;28;20049;-71
2021/08/14 03:46:33;;;;;;;12.02;7.40;;;;;;;15.30;100.00;99322.72;5002730;28;20117;-71
2021/08/14 03:48:59;;;;;;;13.13;7.35;;;;;;;15.31;100.00;99302.63;5009689;28;20030;-72
2021/08/14 03:51:24;;;;;;;15.10;7.60;;;;;;;15.32;100.00;99315.19;5010299;28;20057;-71
2021/08/14 03:53:50;;;;;;;12.27;7.88;;;;;;;15.28;100.00;99322.16;5009642;28;20116;-71
2021/08/14 03:56:15;;;;;;;13.05;7.68;;;;;;;15.22;100.00;99298.47;5012606;28;20492;-72
2021/08/14 03:58:41;;;;;;;12.32;7.63;;;;;;;15.38;100.00;99314.31;5001214;28;20023;-72
2021/08/14 04:01:07;;;;;;;10.90;7.60;;;;;;;15.38;100.00;99321.63;5009378;28;20087;-71
2021/08/14 04:03:32;;;;;;;17.05;7.70;;;;;;;15.37;100.00;99333.59;5010634;28;20165;-71
2021/08/14 04:05:57;;;;;;;10.55;7.10;;;;;;;15.32;100.00;99320.63;5011222;28;20030;-71
2021/08/14 04:08:23;;;;;;;14.80;7.10;;;;;;;15.42;100.00;99326.41;5002980;28;20030;-71
2021/08/14 04:10:48;;;;;;;12.48;7.85;;;;;;;15.43;100.00;99317.22;5011400;28;20033;-71
2021/08/14 04:13:14;;;;;;;12.43;7.95;;;;;;;15.43;100.00;99317.22;5012593;28;20390;-71
2021/08/14 04:15:39;;;;;;;9.98;7.28;;;;;;;15.57;100.00;99328.81;5011266;28;20022;-71
2021/08/14 04:18:04;;;;;;;14.40;8.02;;;;;;;15.56;100.00;99322.53;5011480;28;20017;-71
2021/08/14 04:20:30;;;;;;;11.15;7.30;;;;;;;15.50;100.00;99328.88;5003890;28;20033;-71
2021/08/14 04:22:55;;;;;;;12.80;7.60;;;;;;;15.31;100.00;99302.63;5013780;28;20309;-71
2021/08/14 04:25:21;;;;;;;12.35;7.75;;;;;;;15.28;100.00;99303.06;5013256;28;20029;-64
2021/08/14 04:27:46;;;;;;;12.90;7.38;;;;;;;15.40;100.00;99333.97;5008815;28;20042;-67
2021/08/14 04:30:12;;;;;;;12.38;7.35;;;;;;;15.29;100.00;99315.63;5001116;28;20656;-67
2021/08/14 04:32:37;;;;;;;13.02;6.93;;;;;;;15.40;100.00;99333.97;5011548;28;20072;-68
2021/08/14 04:35:09;;;;;;;11.43;7.40;;;;;;;15.40;100.00;99330.44;5005668;28;20099;-71
2021/08/14 04:37:35;;;;;;;13.98;8.65;;;;;;;15.41;100.00;99319.31;5015058;28;20533;-73
2021/08/14 04:40:01;;;;;;;17.73;8.27;;;;;;;15.44;100.00;99324.31;5015263;28;20022;-72
2021/08/14 04:42:27;;;;;;;18.90;8.90;;;;;;;15.30;100.00;99300.94;5013305;28;20040;-72
2021/08/14 04:44:52;;;;;;;17.70;8.77;;;;;;;15.55;100.00;99312.69;5010053;28;20029;-64
2021/08/14 04:47:18;;;;;;;11.25;7.63;;;;;;;15.93;100.00;99328.09;5011736;28;20372;-69
2021/08/14 04:49:43;;;;;;;14.90;8.38;;;;;;;15.90;100.00;99331.28;5000650;28;20034;-69
2021/08/14 04:52:08;;;;;;;14.40;7.95;;;;;;;15.98;100.00;99313.75;4998449;28;20476;-70
2021/08/14 04:54:33;;;;;;;14.63;8.15;;;;;;;15.92;100.00;99312.78;5012146;28;20038;-70
2021/08/14 04:56:59;;;;;;;15.32;7.97;;;;;;;15.95;100.00;99317.78;5006288;28;20237;-71
2021/08/14 04:59:24;;;;;;;14.40;7.38;;;;;;;16.05;100.00;99321.91;5014875;28;20449;-70
2021/08/14 05:01:49;;;;;;;18.00;7.78;;;;;;;16.07;100.00;99322.50;5013213;28;20112;-69
2021/08/14 05:04:15;;;;;;;17.50;8.20;;;;;;;16.20;99.65;99336.00;5013957;28;20053;-70
2021/08/14 05:06:41;;;;;;;11.90;7.63;;;;;;;16.24;98.64;99331.75;5014804;28;20026;-70
2021/08/14 05:09:06;;;;;;;17.30;7.38;;;;;;;16.37;97.48;99331.63;5013618;28;20033;-70
2021/08/14 05:11:32;;;;;;;8.48;6.18;;;;;;;16.46;96.93;99339.50;5011537;28;20017;-68
2021/08/14 05:13:57;;;;;;;11.80;6.72;;;;;;;16.41;93.94;99338.28;5009136;28;20026;-63
2021/08/14 05:16:25;;;;;;;9.73;6.50;;;;;;;16.38;94.14;99316.91;5014747;28;20053;-63
2021/08/14 05:18:51;;;;;;;8.82;6.40;;;;;;;16.51;93.81;99321.38;5014382;28;20084;-63
2021/08/14 05:21:16;;;;;;;10.73;5.50;;;;;;;16.48;94.32;99310.03;5014098;28;20022;-72
2021/08/14 05:23:41;;;;;;;6.22;5.38;;;;;;;16.70;95.53;99335.81;5012286;28;20454;-68
2021/08/14 05:26:07;;;;;;;7.80;6.28;;;;;;;16.61;97.13;99329.00;5013695;28;20537;-74
2021/08/14 05:28:32;;;;;;;6.63;5.75;;;;;;;16.51;97.16;99301.41;5012794;28;20069;-73
2021/08/14 05:30:57;;;;;;;7.50;5.40;;;;;;;16.80;97.55;99329.84;5014211;28;20021;-73
2021/08/14 05:33:23;;;;;;;5.43;4.90;;;;;;;16.84;97.80;99323.66;5001413;28;20484;-74
2021/08/14 05:35:48;;;;;;;7.15;5.07;;;;;;;17.08;96.84;99334.69;5004070;28;20029;-74
2021/08/14 05:38:14;;;;;;;6.28;4.30;;;;;;;17.27;95.21;99322.63;5010574;28;20030;-73
2021/08/14 05:40:39;;;;;;;6.80;5.57;;;;;;;17.64;94.04;99333.41;5001427;28;20026;-69
2021/08/14 05:43:05;;;;;;;10.10;5.32;;;;;;;17.85;93.82;99333.94;5010850;28;20030;-67
2021/08/14 05:45:30;;;;;;;7.57;5.00;;;;;;;18.16;92.30;99346.41;5012531;28;20021;-70
2021/08/14 05:47:55;;;;;;;6.53;5.15;;;;;;;18.28;91.70;99347.22;5009475;28;20033;-72
2021/08/14 05:50:21;;;;;;;7.20;5.32;;;;;;;18.36;91.60;99344.09;5005187;28;20033;-69
2021/08/14 05:52:46;;;;;;;7.70;5.78;;;;;;;18.21;87.74;99318.28;5006729;28;20038;-70
2021/08/14 05:55:12;;;;;;;8.35;6.30;;;;;;;18.30;86.83;99336.03;5005010;28;20028;-69
2021/08/14 05:57:37;;;;;;;11.68;6.18;;;;;;;18.38;85.89;99338.41;5006179;28;20030;-69
2021/08/14 06:00:04;;;;;;;8.80;6.10;;;;;;;18.44;85.65;99337.41;4994557;28;20114;-68
2021/08/14 06:02:30;;;;;;;9.73;6.15;;;;;;;18.86;84.15;99344.59;5005786;28;20018;-68
2021/08/14 06:04:55;;;;;;;8.98;6.03;;;;;;;19.01;83.37;99340.25;5013248;28;20518;-68
2021/08/14 06:07:21;;;;;;;8.20;5.80;;;;;;;19.43;81.94;99342.63;5011189;28;20029;-68
2021/08/14 06:09:46;;;;;;;9.32;6.18;;;;;;;19.53;80.77;99338.44;5009807;28;20038;-68
2021/08/14 06:12:11;;;;;;;9.48;6.47;;;;;;;20.03;78.18;99343.09;5002980;28;20025;-66
2021/08/14 06:17:05;;;;;;;10.93;6.90;;;;;;;22.09;70.64;99336.81;4991911;28;20096;-69
2021/08/14 06:19:31;;;;;;;10.60;6.30;;;;;;;23.90;64.10;99332.41;4973559;28;20030;-69
2021/08/14 06:21:56;;;;;;;9.93;6.72;;;;;;;25.79;57.81;99334.25;4992371;28;20040;-69
2021/08/14 06:24:22;;;;;;;10.75;6.25;;;;;;;27.54;52.65;99333.03;4990146;28;20026;-69
2021/08/14 06:26:47;;;;;;;9.52;5.85;;;;;;;28.97;48.10;99330.31;4989228;28;20034;-69
2021/08/14 06:29:12;;;;;;;9.20;5.07;;;;;;;30.14;45.93;99334.22;4989972;28;20034;-69
2021/08/14 06:31:38;;;;;;;14.88;5.57;;;;;;;30.29;45.26;99341.41;4991189;28;20026;-69
2021/08/14 06:34:03;;;;;;;9.90;5.63;;;;;;;30.71;43.44;99333.50;4989953;28;20495;-69
2021/08/14 06:36:28;;;;;;;12.65;4.93;;;;;;;32.24;40.81;99331.38;4975334;28;20031;-74
2021/08/14 06:38:56;;;;;;;7.57;5.45;;;;;;;32.99;38.46;99321.63;4992358;28;20018;-74
2021/08/14 06:41:21;;;;;;;9.25;5.30;;;;;;;34.07;36.22;99327.34;4992271;28;20105;-73
2021/08/14 06:43:46;;;;;;;6.72;4.80;;;;;;;34.17;37.07;99318.47;4990985;28;20532;-72
2021/08/14 06:46:12;;;;;;;10.30;5.32;;;;;;;34.06;36.53;99317.28;4992616;28;20034;-73
2021/08/14 06:48:37;;;;;;;8.57;5.30;;;;;;;34.33;36.36;99323.41;4990503;28;20030;-73
2021/08/14 06:51:03;;;;;;;8.65;5.38;;;;;;;34.66;35.81;99326.97;4992301;28;20022;-72
2021/08/14 06:53:30;;;;;;;12.63;5.30;;;;;;;35.55;34.28;99316.81;4989907;28;20041;-74
2021/08/14 06:55:56;;;;;;;10.48;5.32;;;;;;;36.42;32.41;99318.84;4991900;28;20397;-71
2021/08/14 06:58:21;;;;;;;8.57;4.70;;;;;;;37.38;31.89;99313.84;4982434;28;20137;-72
2021/08/14 07:00:46;;;;;;;7.07;4.95;;;;;;;37.70;30.43;99313.69;4985226;28;20080;-72
2021/08/14 07:03:11;;;;;;;7.20;4.83;;;;;;;37.19;32.17;99316.66;4982893;28;20614;-72
2021/08/14 07:05:40;;;;;;;9.97;5.00;;;;;;;34.67;35.29;99308.94;4991840;28;20275;-71
2021/08/14 07:08:06;;;;;;;7.38;4.88;;;;;;;36.48;33.16;99301.66;4980682;28;20629;-71
2021/08/14 07:10:32;;;;;;;9.25;5.30;;;;;;;35.92;33.60;99303.44;4989447;28;20100;-72
2021/08/14 07:12:57;;;;;;;9.98;5.10;;;;;;;35.72;34.40;99321.38;4983242;28;20037;-73
2021/08/14 07:15:22;;;;;;;6.68;4.63;;;;;;;36.73;33.18;99316.38;4983840;28;20023;-72
2021/08/14 07:17:48;;;;;;;6.35;4.57;;;;;;;36.97;32.80;99307.69;4981947;28;20377;-75
2021/08/14 07:20:14;;;;;;;8.73;5.00;;;;;;;37.66;31.26;99299.53;4992555;28;20022;-75
2021/08/14 07:22:39;;;;;;;6.72;4.50;;;;;;;38.58;29.95;99312.94;4989926;28;20100;-73
2021/08/14 07:25:05;;;;;;;6.95;4.00;;;;;;;38.54;30.18;99295.91;4997489;28;20106;-73
2021/08/14 07:27:30;;;;;;;7.70;5.10;;;;;;;37.46;31.20;99309.16;4994886;28;20056;-71
2021/08/14 07:29:56;;;;;;;6.38;4.55;;;;;;;37.17;31.58;99300.09;4988714;28;20030;-72
2021/08/14 07:32:21;;;;;;;8.68;4.82;;;;;;;37.36;31.05;99301.28;4987944;28;20034;-72
2021/08/14 07:34:46;;;;;;;6.22;4.88;;;;;;;37.90;30.09;99294.72;4983746;28;20041;-70
2021/08/14 07:37:12;;;;;;;8.38;4.72;;;;;;;38.36;30.32;99294.78;4992021;28;20026;-73
2021/08/14 07:39:37;;;;;;;6.80;4.45;;;;;;;37.43;31.76;99295.78;4990377;28;20042;-70
2021/08/14 07:42:02;;;;;;;7.93;5.20;;;;;;;37.10;31.50;99287.81;4991294;28;20511;-72
2021/08/14 07:44:28;;;;;;;6.28;4.55;;;;;;;37.53;30.64;99292.41;4989230;28;20030;-71
2021/08/14 07:46:53;;;;;;;6.18;4.93;;;;;;;37.22;31.45;99296.97;4992051;28;20045;-71
2021/08/14 07:49:18;;;;;;;8.83;4.73;;;;;;;37.95;30.02;99288.78;4996173;28;20129;-74
2021/08/14 07:51:43;;;;;;;6.22;4.75;;;;;;;36.77;31.86;99294.72;4993794;28;20273;-70
2021/08/14 07:54:09;;;;;;;8.07;3.93;;;;;;;38.10;30.30;99284.22;4992297;28;20034;-74
2021/08/14 07:56:34;;;;;;;6.70;4.47;;;;;;;38.46;30.00;99288.47;4997558;28;20364;-75
2021/08/14 07:58:59;;;;;;;8.60;4.57;;;;;;;38.51;29.39;99284.53;4994351;28;20030;-72
2021/08/14 08:01:25;;;;;;;7.15;4.50;;;;;;;37.99;30.40;99283.22;4986048;28;20480;-74
2021/08/14 08:03:50;;;;;;;5.95;4.85;;;;;;;37.71;30.31;99285.09;4982629;28;20026;-75
2021/08/14 08:06:15;;;;;;;6.00;4.82;;;;;;;38.19;29.18;99278.31;4994765;28;20034;-75
2021/08/14 08:08:41;;;;;;;5.57;4.28;;;;;;;37.01;31.65;99288.03;4991035;28;20046;-72
2021/08/14 08:11:06;;;;;;;8.00;4.05;;;;;;;38.03;29.81;99275.63;4989478;28;20037;-72
2021/08/14 08:13:31;;;;;;;6.43;4.88;;;;;;;37.56;31.09;99274.72;4972402;28;20058;-72
2021/08/14 08:15:57;;;;;;;8.15;4.50;;;;;;;37.87;30.67;99281.34;4991634;28;20026;-77
2021/08/14 08:18:22;;;;;;;6.43;4.20;;;;;;;38.04;29.52;99278.06;4986030;28;20407;-71
2021/08/14 08:20:47;;;;;;;6.10;4.47;;;;;;;38.60;28.89;99278.63;4994154;28;20448;-73
2021/08/14 08:23:13;;;;;;;6.28;4.03;;;;;;;39.04;28.30;99278.06;4994169;28;20052;-74
2021/08/14 08:25:39;;;;;;;6.18;4.63;;;;;;;39.13;28.34;99279.41;4995406;28;20711;-74
2021/08/14 08:28:04;;;;;;;10.23;4.47;;;;;;;38.89;28.62;99277.88;4995271;28;20042;-74
2021/08/14 08:30:31;;;;;;;6.95;4.35;;;;;;;38.83;28.77;99268.06;4994620;28;20065;-73
2021/08/14 08:32:56;;;;;;;8.20;4.68;;;;;;;38.13;29.51;99269.34;4995341;28;20109;-71
2021/08/14 08:35:22;;;;;;;7.30;3.80;;;;;;;37.72;29.30;99252.03;4995338;28;20515;-71
2021/08/14 08:37:47;;;;;;;8.60;3.88;;;;;;;38.69;28.33;99276.31;4989579;28;20026;-71
2021/08/14 08:40:14;;;;;;;5.07;3.80;;;;;;;39.30;27.93;99265.84;4995529;28;20030;-71
2021/08/14 08:42:41;;;;;;;6.63;4.55;;;;;;;38.93;27.74;99272.25;4989345;28;20447;-71
2021/08/14 08:45:07;;;;;;;7.32;4.10;;;;;;;39.01;28.03;99254.16;4991251;28;20077;-71
2021/08/14 08:47:36;;;;;;;6.25;3.80;;;;;;;39.36;25.70;99265.19;4979346;28;20030;-72
2021/08/14 08:50:03;;;;;;;4.32;3.55;;;;;;;39.51;26.30;99265.31;4978217;28;20065;-71
2021/08/14 08:52:29;;;;;;;7.00;3.33;;;;;;;40.33;26.10;99256.88;4994407;28;20061;-72
2021/08/14 08:54:54;;;;;;;6.65;3.70;;;;;;;39.90;26.72;99257.28;4994470;28;20062;-76
2021/08/14 08:57:21;;;;;;;5.13;3.50;;;;;;;39.61;25.81;99265.44;4993621;28;20030;-76
2021/08/14 08:59:47;;;;;;;5.43;3.63;;;;;;;37.49;27.92;99266.91;4991736;28;20026;-76
2021/08/14 09:02:27;;;;;;;7.25;3.40;;;;;;;39.47;27.08;99265.28;4994830;28;20029;-73
2021/08/14 09:05:16;;;;;;;6.00;3.50;;;;;;;39.69;25.44;99257.84;4978486;28;20030;-73
2021/08/14 09:07:46;;;;;;;6.25;3.45;;;;;;;40.24;24.44;99243.84;4989543;28;20022;-72
2021/08/14 09:10:32;;;;;;;6.95;3.30;;;;;;;40.64;24.27;99253.47;4995075;28;20026;-70
2021/08/14 09:12:57;;;;;;;5.00;3.50;;;;;;;39.58;25.63;99259.75;4993430;28;20030;-68
2021/08/14 09:15:31;;;;;;;6.10;3.73;;;;;;;39.91;25.22;99250.41;4985018;28;20384;-71
2021/08/14 09:18:00;;;;;;;4.93;3.40;;;;;;;39.56;25.65;99254.47;4986869;28;20686;-71
2021/08/14 09:20:26;;;;;;;8.73;3.63;;;;;;;40.60;24.65;99246.94;4987467;28;20037;-70
2021/08/14 09:23:10;;;;;;;7.97;3.40;;;;;;;39.64;26.14;99241.19;4993986;28;20026;-71
2021/08/14 09:25:39;;;;;;;8.13;3.55;;;;;;;40.72;24.34;99238.13;4992179;28;20026;-73
2021/08/14 09:28:05;;;;;;;6.30;3.58;;;;;;;41.58;23.90;99238.56;4995696;28;20030;-77
2021/08/14 09:30:56;;;;;;;6.47;3.53;;;;;;;41.50;23.64;99241.72;4994495;28;20114;-78
2021/08/14 09:33:34;;;;;;;4.75;2.97;;;;;;;40.93;23.74;99222.44;4996137;28;20030;-74
2021/08/14 09:36:02;;;;;;;4.47;3.40;;;;;;;39.97;24.52;99239.53;4993955;28;20134;-75
2021/08/14 09:38:59;;;;;;;5.65;3.97;;;;;;;40.16;25.43;99227.94;4993677;28;20030;-72
2021/08/14 09:41:25;;;;;;;;;;;;;;;40.34;24.66;99232.97;4979397;28;20044;-74
2021/08/14 09:43:52;;;;;;;4.22;3.42;;;;;;;41.45;23.49;99233.59;4991179;28;20145;-73
2021/08/14 09:46:18;;;;;;;5.53;3.50;;;;;;;39.71;25.09;99232.78;4994347;28;20022;-77
2021/08/14 09:48:53;;;;;;;5.68;3.60;;;;;;;41.18;23.89;99225.41;4984786;28;20088;-76
2021/08/14 09:51:32;;;;;;;5.32;3.28;;;;;;;41.06;23.98;99228.56;4989197;28;20444;-73
2021/08/14 09:54:00;;;;;;;7.78;4.25;;;;;;;39.33;25.73;99226.31;4993162;28;20022;-73
2021/08/14 09:56:26;;;;;;;3.70;3.08;;;;;;;40.07;25.25;99218.97;4975376;28;20054;-73
2021/08/14 09:58:52;;;;;;;4.53;3.47;;;;;;;40.02;25.50;99213.66;4987939;28;20399;-73
2021/08/14 10:01:18;;;;;;;8.77;3.28;;;;;;;40.48;24.94;99213.22;4993778;28;20030;-73
2021/08/14 10:03:45;;;;;;;4.60;3.40;;;;;;;40.52;24.33;99208.41;4991906;28;21904;-72
2021/08/14 10:06:12;;;;;;;5.30;3.60;;;;;;;41.03;24.41;99212.31;4976932;28;20468;-72
2021/08/14 10:08:39;;;;;;;8.68;3.25;;;;;;;41.49;23.54;99206.84;4993491;28;20080;-73
2021/08/14 10:11:07;;;;;;;5.25;3.30;;;;;;;41.58;25.07;99206.47;4987639;28;20468;-73
2021/08/14 10:13:33;;;;;;;4.90;3.22;;;;;;;41.18;24.96;99203.50;4991825;28;20035;-73
2021/08/14 10:15:59;;;;;;;4.80;3.22;;;;;;;42.31;23.82;99193.94;4993667;28;20030;-73
2021/08/14 10:18:26;;;;;;;6.55;3.20;;;;;;;42.60;23.17;99194.72;4992661;28;20448;-73
2021/08/14 10:20:51;;;;;;;6.53;3.80;;;;;;;40.61;23.89;99191.84;4993387;28;20096;-73
2021/08/14 10:23:23;;;;;;;4.90;3.03;;;;;;;41.83;23.84;99197.97;4988475;28;20492;-73
2021/08/14 10:25:58;;;;;;;5.30;3.28;;;;;;;42.04;24.14;99188.69;4993025;28;20755;-72
2021/08/14 10:28:41;;;;;;;6.82;3.42;;;;;;;41.65;23.20;99183.75;4987283;28;20040;-73
2021/08/14 10:31:07;;;;;;;4.30;3.15;;;;;;;41.90;22.95;99180.13;4975804;28;20547;-73
2021/08/14 10:33:35;;;;;;;6.72;3.40;;;;;;;42.72;22.13;99180.03;4985926;28;20037;-72
2021/08/14 10:36:15;;;;;;;5.07;3.42;;;;;;;42.24;23.47;99177.72;4988765;28;20117;-72
2021/08/14 10:38:50;;;;;;;8.38;3.45;;;;;;;41.50;23.04;99171.56;4993306;28;20047;-72
2021/08/14 10:41:17;;;;;;;5.15;3.35;;;;;;;41.36;22.99;99160.16;4994054;28;20101;-72
2021/08/14 10:43:54;;;;;;;4.53;3.38;;;;;;;40.85;24.19;99175.34;4990694;28;20022;-72
2021/08/14 10:46:31;;;;;;;5.05;3.92;;;;;;;39.95;24.73;99171.91;4992838;28;20030;-72
2021/08/14 10:48:58;;;;;;;6.63;3.95;;;;;;;41.89;23.24;99167.94;4992436;28;20077;-72
2021/08/14 10:51:47;;;;;;;4.45;4.05;;;;;;;40.83;23.78;99155.09;4991122;28;20112;-72
2021/08/14 10:54:35;;;;;;;5.80;3.63;;;;;;;40.91;23.66;99154.72;4992610;28;20030;-72
2021/08/14 10:57:01;;;;;;;6.32;3.67;;;;;;;41.05;23.95;99156.78;4985160;28;20034;-72
2021/08/14 10:59:52;;;;;;;6.53;3.50;;;;;;;40.58;25.62;99155.75;4989567;28;20080;-72
2021/08/14 11:02:18;;;;;;;6.45;3.63;;;;;;;41.21;24.34;99152.81;4983070;28;20092;-72
2021/08/14 11:04:49;;;;;;;5.00;3.23;;;;;;;42.15;23.74;99146.81;4989464;28;20418;-72
2021/08/14 11:07:20;;;;;;;6.18;3.85;;;;;;;41.96;23.41;99148.06;4982172;28;20034;-72
2021/08/14 11:09:54;;;;;;;4.82;3.20;;;;;;;42.39;23.42;99144.38;4990125;28;20030;-72
2021/08/14 11:12:44;;;;;;;5.18;3.00;;;;;;;42.41;23.36;99137.06;4989136;28;20783;-71
2021/08/14 11:15:26;;;;;;;4.47;3.45;;;;;;;42.97;22.45;99133.59;4988311;28;20030;-73
2021/08/14 11:17:54;;;;;;;7.97;3.72;;;;;;;42.05;23.50;99133.44;4987663;28;20030;-73
2021/08/14 11:20:20;;;;;;;4.57;3.28;;;;;;;41.48;22.92;99124.88;4989405;28;20133;-72
2021/08/14 11:22:53;;;;;;;6.63;3.60;;;;;;;41.54;23.61;99118.41;4987933;28;20109;-72
2021/08/14 11:25:26;;;;;;;7.25;3.55;;;;;;;41.96;22.55;99119.66;4984518;28;20025;-72
2021/08/14 11:28:05;;;;;;;7.05;3.83;;;;;;;39.80;25.23;99122.00;4987980;28;20030;-72